sensor_id;sensor_type;location;lat;lon;timestamp;P1;durP1;ratioP1;P2;durP2;ratioP2
64950;SDS011;51482;47.014;7.652;2023-11-21T00:02:11;4.17;;;1.30;;
64950;SDS011;51482;47.014;7.652;2023-11-21T00:04:37;3.63;;;1.40;;
64950;SDS011;51482;47.014;7.652;2023-11-21T00:07:03;6.27;;;1.60;;
64950;SDS011;51482;47.014;7.652;2023-11-21T00:09:28;4.17;;;1.30;;
64950;SDS011;51482;47.014;7.652;2023-11-21T00:11:54;3.23;;;1.50;;
64950;SDS011;51482;47.014;7.652;2023-11-21T00:14:19;2.87;;;1.40;;
64950;SDS011;51482;47.014;7.652;2023-11-21T00:16:45;1.97;;;1.17;;
64950;SDS011;51482;47.014;7.652;2023-11-21T00:19:11;7.93;;;2.03;;
64950;SDS011;51482;47.014;7.652;2023-11-21T00:21:37;2.93;;;1.50;;
64950;SDS011;51482;47.014;7.652;2023-11-21T00:24:03;2.00;;;1.20;;
64950;SDS011;51482;47.014;7.652;2023-11-21T00:26:28;4.93;;;1.50;;
64950;SDS011;51482;47.014;7.652;2023-11-21T00:28:56;2.10;;;1.33;;
64950;SDS011;51482;47.014;7.652;2023-11-21T00:31:21;1.17;;;0.80;;
64950;SDS011;51482;47.014;7.652;2023-11-21T00:33:47;5.60;;;1.23;;
64950;SDS011;51482;47.014;7.652;2023-11-21T00:36:13;4.20;;;1.20;;
64950;SDS011;51482;47.014;7.652;2023-11-21T00:38:38;2.77;;;1.40;;
64950;SDS011;51482;47.014;7.652;2023-11-21T00:41:05;2.57;;;1.40;;
64950;SDS011;51482;47.014;7.652;2023-11-21T00:43:31;4.00;;;1.50;;
64950;SDS011;51482;47.014;7.652;2023-11-21T00:45:58;3.33;;;1.33;;
64950;SDS011;51482;47.014;7.652;2023-11-21T00:48:24;3.17;;;1.53;;
64950;SDS011;51482;47.014;7.652;2023-11-21T00:50:49;2.67;;;1.90;;
64950;SDS011;51482;47.014;7.652;2023-11-21T00:53:15;2.43;;;1.70;;
64950;SDS011;51482;47.014;7.652;2023-11-21T00:55:41;1.93;;;1.20;;
64950;SDS011;51482;47.014;7.652;2023-11-21T00:58:06;3.73;;;1.50;;
64950;SDS011;51482;47.014;7.652;2023-11-21T01:00:32;2.67;;;1.00;;
64950;SDS011;51482;47.014;7.652;2023-11-21T01:02:58;4.87;;;1.33;;
64950;SDS011;51482;47.014;7.652;2023-11-21T01:05:24;2.67;;;1.07;;
64950;SDS011;51482;47.014;7.652;2023-11-21T01:07:50;2.07;;;1.40;;
64950;SDS011;51482;47.014;7.652;2023-11-21T01:10:16;5.47;;;1.30;;
64950;SDS011;51482;47.014;7.652;2023-11-21T01:12:42;2.70;;;1.27;;
64950;SDS011;51482;47.014;7.652;2023-11-21T01:15:08;5.13;;;3.13;;
64950;SDS011;51482;47.014;7.652;2023-11-21T01:17:33;5.10;;;2.00;;
64950;SDS011;51482;47.014;7.652;2023-11-21T01:20:00;2.77;;;1.30;;
64950;SDS011;51482;47.014;7.652;2023-11-21T01:22:26;2.03;;;1.23;;
64950;SDS011;51482;47.014;7.652;2023-11-21T01:24:53;2.23;;;0.90;;
64950;SDS011;51482;47.014;7.652;2023-11-21T01:27:19;2.40;;;1.30;;
64950;SDS011;51482;47.014;7.652;2023-11-21T01:29:44;1.33;;;0.93;;
64950;SDS011;51482;47.014;7.652;2023-11-21T01:32:10;2.37;;;1.33;;
64950;SDS011;51482;47.014;7.652;2023-11-21T01:34:36;4.27;;;1.43;;
64950;SDS011;51482;47.014;7.652;2023-11-21T01:37:02;3.37;;;1.30;;
64950;SDS011;51482;47.014;7.652;2023-11-21T01:39:29;1.77;;;1.10;;
64950;SDS011;51482;47.014;7.652;2023-11-21T01:41:55;4.10;;;1.43;;
64950;SDS011;51482;47.014;7.652;2023-11-21T01:44:23;3.57;;;1.73;;
64950;SDS011;51482;47.014;7.652;2023-11-21T01:46:49;1.63;;;1.20;;
64950;SDS011;51482;47.014;7.652;2023-11-21T01:49:15;3.27;;;1.10;;
64950;SDS011;51482;47.014;7.652;2023-11-21T01:51:43;5.07;;;1.17;;
64950;SDS011;51482;47.014;7.652;2023-11-21T01:54:11;1.63;;;1.10;;
64950;SDS011;51482;47.014;7.652;2023-11-21T01:56:37;5.30;;;1.40;;
64950;SDS011;51482;47.014;7.652;2023-11-21T01:59:04;2.03;;;1.27;;
64950;SDS011;51482;47.014;7.652;2023-11-21T02:01:30;2.23;;;1.30;;
64950;SDS011;51482;47.014;7.652;2023-11-21T02:03:56;2.60;;;1.47;;
64950;SDS011;51482;47.014;7.652;2023-11-21T02:06:22;1.33;;;1.10;;
64950;SDS011;51482;47.014;7.652;2023-11-21T02:08:47;2.83;;;1.80;;
64950;SDS011;51482;47.014;7.652;2023-11-21T02:11:14;2.00;;;1.50;;
64950;SDS011;51482;47.014;7.652;2023-11-21T02:13:39;2.77;;;1.67;;
64950;SDS011;51482;47.014;7.652;2023-11-21T02:16:12;1.60;;;1.50;;
64950;SDS011;51482;47.014;7.652;2023-11-21T02:18:39;1.93;;;1.80;;
64950;SDS011;51482;47.014;7.652;2023-11-21T02:21:04;2.67;;;1.30;;
64950;SDS011;51482;47.014;7.652;2023-11-21T02:23:30;2.77;;;1.10;;
64950;SDS011;51482;47.014;7.652;2023-11-21T02:25:56;1.80;;;1.10;;
64950;SDS011;51482;47.014;7.652;2023-11-21T02:28:21;2.57;;;1.40;;
64950;SDS011;51482;47.014;7.652;2023-11-21T02:30:51;3.97;;;1.30;;
64950;SDS011;51482;47.014;7.652;2023-11-21T02:33:20;3.20;;;1.30;;
64950;SDS011;51482;47.014;7.652;2023-11-21T02:35:47;1.53;;;1.07;;
64950;SDS011;51482;47.014;7.652;2023-11-21T02:38:12;2.60;;;1.13;;
64950;SDS011;51482;47.014;7.652;2023-11-21T02:40:38;2.00;;;1.67;;
64950;SDS011;51482;47.014;7.652;2023-11-21T02:43:04;3.23;;;1.17;;
64950;SDS011;51482;47.014;7.652;2023-11-21T02:45:31;3.83;;;1.40;;
64950;SDS011;51482;47.014;7.652;2023-11-21T02:47:57;2.30;;;1.47;;
64950;SDS011;51482;47.014;7.652;2023-11-21T02:50:23;2.37;;;1.47;;
64950;SDS011;51482;47.014;7.652;2023-11-21T02:52:49;4.53;;;1.37;;
64950;SDS011;51482;47.014;7.652;2023-11-21T02:55:15;1.93;;;1.17;;
64950;SDS011;51482;47.014;7.652;2023-11-21T02:57:40;2.67;;;1.53;;
64950;SDS011;51482;47.014;7.652;2023-11-21T03:00:06;5.17;;;1.57;;
64950;SDS011;51482;47.014;7.652;2023-11-21T03:02:32;3.40;;;1.13;;
64950;SDS011;51482;47.014;7.652;2023-11-21T03:05:01;1.23;;;1.13;;
64950;SDS011;51482;47.014;7.652;2023-11-21T03:07:27;4.10;;;1.70;;
64950;SDS011;51482;47.014;7.652;2023-11-21T03:09:53;1.47;;;1.10;;
64950;SDS011;51482;47.014;7.652;2023-11-21T03:12:18;2.73;;;1.50;;
64950;SDS011;51482;47.014;7.652;2023-11-21T03:14:44;4.80;;;1.80;;
64950;SDS011;51482;47.014;7.652;2023-11-21T03:17:10;4.07;;;1.37;;
64950;SDS011;51482;47.014;7.652;2023-11-21T03:19:36;2.30;;;1.27;;
64950;SDS011;51482;47.014;7.652;2023-11-21T03:22:02;3.87;;;1.27;;
64950;SDS011;51482;47.014;7.652;2023-11-21T03:24:29;3.37;;;1.50;;
64950;SDS011;51482;47.014;7.652;2023-11-21T03:26:54;1.70;;;1.20;;
64950;SDS011;51482;47.014;7.652;2023-11-21T03:29:20;1.27;;;1.03;;
64950;SDS011;51482;47.014;7.652;2023-11-21T03:31:46;2.83;;;1.47;;
64950;SDS011;51482;47.014;7.652;2023-11-21T03:34:15;2.10;;;1.40;;
64950;SDS011;51482;47.014;7.652;2023-11-21T03:36:44;2.60;;;2.03;;
64950;SDS011;51482;47.014;7.652;2023-11-21T03:39:11;3.03;;;1.80;;
64950;SDS011;51482;47.014;7.652;2023-11-21T03:41:36;2.70;;;1.73;;
64950;SDS011;51482;47.014;7.652;2023-11-21T03:44:02;2.37;;;1.67;;
64950;SDS011;51482;47.014;7.652;2023-11-21T03:46:28;4.23;;;1.60;;
64950;SDS011;51482;47.014;7.652;2023-11-21T03:48:53;3.40;;;1.40;;
64950;SDS011;51482;47.014;7.652;2023-11-21T03:51:20;3.20;;;1.60;;
64950;SDS011;51482;47.014;7.652;2023-11-21T03:53:46;2.63;;;1.30;;
64950;SDS011;51482;47.014;7.652;2023-11-21T03:56:13;2.93;;;1.50;;
64950;SDS011;51482;47.014;7.652;2023-11-21T03:58:39;2.93;;;1.60;;
64950;SDS011;51482;47.014;7.652;2023-11-21T04:01:04;2.77;;;1.90;;
64950;SDS011;51482;47.014;7.652;2023-11-21T04:03:30;3.90;;;1.50;;
64950;SDS011;51482;47.014;7.652;2023-11-21T04:05:56;2.00;;;1.50;;
64950;SDS011;51482;47.014;7.652;2023-11-21T04:08:21;25.23;;;17.00;;
64950;SDS011;51482;47.014;7.652;2023-11-21T04:10:47;2.40;;;2.20;;
64950;SDS011;51482;47.014;7.652;2023-11-21T04:13:13;3.00;;;1.93;;
64950;SDS011;51482;47.014;7.652;2023-11-21T04:15:39;3.10;;;1.70;;
64950;SDS011;51482;47.014;7.652;2023-11-21T04:18:04;2.67;;;1.60;;
64950;SDS011;51482;47.014;7.652;2023-11-21T04:20:30;1.37;;;1.10;;
64950;SDS011;51482;47.014;7.652;2023-11-21T04:22:55;2.40;;;1.50;;
64950;SDS011;51482;47.014;7.652;2023-11-21T04:25:21;4.07;;;1.80;;
64950;SDS011;51482;47.014;7.652;2023-11-21T04:27:48;6.90;;;2.27;;
64950;SDS011;51482;47.014;7.652;2023-11-21T04:30:14;5.67;;;3.47;;
64950;SDS011;51482;47.014;7.652;2023-11-21T04:32:40;2.77;;;2.20;;
64950;SDS011;51482;47.014;7.652;2023-11-21T04:35:07;4.90;;;2.50;;
64950;SDS011;51482;47.014;7.652;2023-11-21T04:37:38;2.43;;;1.70;;
64950;SDS011;51482;47.014;7.652;2023-11-21T04:40:05;5.10;;;1.70;;
64950;SDS011;51482;47.014;7.652;2023-11-21T04:42:33;2.10;;;1.33;;
64950;SDS011;51482;47.014;7.652;2023-11-21T04:45:02;2.67;;;1.27;;
64950;SDS011;51482;47.014;7.652;2023-11-21T04:47:33;1.17;;;1.03;;
64950;SDS011;51482;47.014;7.652;2023-11-21T04:49:58;1.70;;;1.17;;
64950;SDS011;51482;47.014;7.652;2023-11-21T04:52:24;4.77;;;1.50;;
64950;SDS011;51482;47.014;7.652;2023-11-21T04:54:49;3.57;;;1.50;;
64950;SDS011;51482;47.014;7.652;2023-11-21T04:57:15;2.97;;;1.27;;
64950;SDS011;51482;47.014;7.652;2023-11-21T04:59:43;2.37;;;1.30;;
64950;SDS011;51482;47.014;7.652;2023-11-21T05:02:08;4.47;;;1.30;;
64950;SDS011;51482;47.014;7.652;2023-11-21T05:04:34;2.77;;;1.33;;
64950;SDS011;51482;47.014;7.652;2023-11-21T05:06:59;2.07;;;1.47;;
64950;SDS011;51482;47.014;7.652;2023-11-21T05:09:25;2.97;;;1.60;;
64950;SDS011;51482;47.014;7.652;2023-11-21T05:11:53;4.47;;;1.60;;
64950;SDS011;51482;47.014;7.652;2023-11-21T05:14:19;4.03;;;1.57;;
64950;SDS011;51482;47.014;7.652;2023-11-21T05:16:45;1.77;;;1.40;;
64950;SDS011;51482;47.014;7.652;2023-11-21T05:19:11;1.70;;;1.40;;
64950;SDS011;51482;47.014;7.652;2023-11-21T05:21:38;3.37;;;1.43;;
64950;SDS011;51482;47.014;7.652;2023-11-21T05:24:03;3.80;;;1.77;;
64950;SDS011;51482;47.014;7.652;2023-11-21T05:26:30;2.97;;;1.50;;
64950;SDS011;51482;47.014;7.652;2023-11-21T05:28:56;3.83;;;1.27;;
64950;SDS011;51482;47.014;7.652;2023-11-21T05:31:21;5.37;;;1.70;;
64950;SDS011;51482;47.014;7.652;2023-11-21T05:33:47;5.43;;;2.60;;
64950;SDS011;51482;47.014;7.652;2023-11-21T05:36:12;6.40;;;2.40;;
64950;SDS011;51482;47.014;7.652;2023-11-21T05:38:38;2.83;;;2.13;;
64950;SDS011;51482;47.014;7.652;2023-11-21T05:41:03;5.50;;;3.20;;
64950;SDS011;51482;47.014;7.652;2023-11-21T05:43:30;5.43;;;2.10;;
64950;SDS011;51482;47.014;7.652;2023-11-21T05:45:55;1.70;;;1.50;;
64950;SDS011;51482;47.014;7.652;2023-11-21T05:48:21;8.27;;;3.20;;
64950;SDS011;51482;47.014;7.652;2023-11-21T05:50:47;5.17;;;3.37;;
64950;SDS011;51482;47.014;7.652;2023-11-21T05:53:14;2.13;;;1.60;;
64950;SDS011;51482;47.014;7.652;2023-11-21T05:55:40;7.67;;;3.27;;
64950;SDS011;51482;47.014;7.652;2023-11-21T05:58:07;8.47;;;3.30;;
64950;SDS011;51482;47.014;7.652;2023-11-21T06:00:32;8.43;;;3.23;;
64950;SDS011;51482;47.014;7.652;2023-11-21T06:02:58;6.00;;;4.00;;
64950;SDS011;51482;47.014;7.652;2023-11-21T06:05:24;10.23;;;5.20;;
64950;SDS011;51482;47.014;7.652;2023-11-21T06:07:51;7.03;;;4.23;;
64950;SDS011;51482;47.014;7.652;2023-11-21T06:10:19;6.13;;;3.63;;
64950;SDS011;51482;47.014;7.652;2023-11-21T06:12:45;3.70;;;2.30;;
64950;SDS011;51482;47.014;7.652;2023-11-21T06:15:11;2.60;;;2.10;;
64950;SDS011;51482;47.014;7.652;2023-11-21T06:17:38;2.93;;;1.90;;
64950;SDS011;51482;47.014;7.652;2023-11-21T06:20:11;3.43;;;2.40;;
64950;SDS011;51482;47.014;7.652;2023-11-21T06:22:40;2.40;;;2.20;;
64950;SDS011;51482;47.014;7.652;2023-11-21T06:25:07;4.07;;;2.10;;
64950;SDS011;51482;47.014;7.652;2023-11-21T06:27:35;3.33;;;1.80;;
64950;SDS011;51482;47.014;7.652;2023-11-21T06:30:11;2.90;;;2.03;;
64950;SDS011;51482;47.014;7.652;2023-11-21T06:32:38;2.83;;;1.87;;
64950;SDS011;51482;47.014;7.652;2023-11-21T06:35:05;5.07;;;2.10;;
64950;SDS011;51482;47.014;7.652;2023-11-21T06:37:31;4.50;;;2.10;;
64950;SDS011;51482;47.014;7.652;2023-11-21T06:39:57;4.73;;;2.10;;
64950;SDS011;51482;47.014;7.652;2023-11-21T06:42:24;2.10;;;1.87;;
64950;SDS011;51482;47.014;7.652;2023-11-21T06:44:50;3.07;;;2.53;;
64950;SDS011;51482;47.014;7.652;2023-11-21T06:47:22;2.07;;;1.87;;
64950;SDS011;51482;47.014;7.652;2023-11-21T06:49:51;3.13;;;2.13;;
64950;SDS011;51482;47.014;7.652;2023-11-21T06:52:18;2.00;;;1.80;;
64950;SDS011;51482;47.014;7.652;2023-11-21T06:54:44;2.00;;;1.80;;
64950;SDS011;51482;47.014;7.652;2023-11-21T06:57:10;2.83;;;2.10;;
64950;SDS011;51482;47.014;7.652;2023-11-21T06:59:36;3.63;;;2.03;;
64950;SDS011;51482;47.014;7.652;2023-11-21T07:02:01;3.17;;;1.57;;
64950;SDS011;51482;47.014;7.652;2023-11-21T07:04:27;3.50;;;2.10;;
64950;SDS011;51482;47.014;7.652;2023-11-21T07:06:55;2.93;;;2.23;;
64950;SDS011;51482;47.014;7.652;2023-11-21T07:09:21;2.40;;;2.00;;
64950;SDS011;51482;47.014;7.652;2023-11-21T07:11:47;2.77;;;2.10;;
64950;SDS011;51482;47.014;7.652;2023-11-21T07:14:14;3.43;;;1.80;;
64950;SDS011;51482;47.014;7.652;2023-11-21T07:16:40;3.67;;;2.30;;
64950;SDS011;51482;47.014;7.652;2023-11-21T07:19:05;3.67;;;2.10;;
64950;SDS011;51482;47.014;7.652;2023-11-21T07:21:32;4.20;;;2.53;;
64950;SDS011;51482;47.014;7.652;2023-11-21T07:23:59;3.87;;;2.43;;
64950;SDS011;51482;47.014;7.652;2023-11-21T07:26:26;5.43;;;2.20;;
64950;SDS011;51482;47.014;7.652;2023-11-21T07:28:52;8.47;;;2.50;;
64950;SDS011;51482;47.014;7.652;2023-11-21T07:31:18;3.00;;;2.27;;
64950;SDS011;51482;47.014;7.652;2023-11-21T07:33:44;5.43;;;2.33;;
64950;SDS011;51482;47.014;7.652;2023-11-21T07:36:12;3.43;;;2.40;;
64950;SDS011;51482;47.014;7.652;2023-11-21T07:38:38;4.43;;;2.80;;
64950;SDS011;51482;47.014;7.652;2023-11-21T07:41:04;5.37;;;2.90;;
64950;SDS011;51482;47.014;7.652;2023-11-21T07:43:30;5.37;;;2.60;;
64950;SDS011;51482;47.014;7.652;2023-11-21T07:46:03;3.23;;;2.20;;
64950;SDS011;51482;47.014;7.652;2023-11-21T07:48:32;5.13;;;2.30;;
64950;SDS011;51482;47.014;7.652;2023-11-21T07:50:58;4.07;;;1.90;;
64950;SDS011;51482;47.014;7.652;2023-11-21T07:53:24;2.80;;;2.43;;
64950;SDS011;51482;47.014;7.652;2023-11-21T07:55:50;3.13;;;2.30;;
64950;SDS011;51482;47.014;7.652;2023-11-21T07:58:17;3.33;;;2.00;;
64950;SDS011;51482;47.014;7.652;2023-11-21T08:00:43;4.17;;;1.90;;
64950;SDS011;51482;47.014;7.652;2023-11-21T08:03:09;3.27;;;2.40;;
64950;SDS011;51482;47.014;7.652;2023-11-21T08:05:34;2.33;;;2.07;;
64950;SDS011;51482;47.014;7.652;2023-11-21T08:08:00;6.77;;;3.53;;
64950;SDS011;51482;47.014;7.652;2023-11-21T08:10:26;4.77;;;2.50;;
64950;SDS011;51482;47.014;7.652;2023-11-21T08:12:51;4.17;;;2.40;;
64950;SDS011;51482;47.014;7.652;2023-11-21T08:15:18;4.37;;;2.50;;
64950;SDS011;51482;47.014;7.652;2023-11-21T08:17:44;5.90;;;2.73;;
64950;SDS011;51482;47.014;7.652;2023-11-21T08:20:10;5.10;;;2.40;;
64950;SDS011;51482;47.014;7.652;2023-11-21T08:22:36;3.93;;;2.63;;
64950;SDS011;51482;47.014;7.652;2023-11-21T08:25:02;4.93;;;3.00;;
64950;SDS011;51482;47.014;7.652;2023-11-21T08:27:29;8.73;;;4.40;;
64950;SDS011;51482;47.014;7.652;2023-11-21T08:29:55;7.43;;;4.30;;
64950;SDS011;51482;47.014;7.652;2023-11-21T08:32:22;9.73;;;4.30;;
64950;SDS011;51482;47.014;7.652;2023-11-21T08:34:47;9.30;;;6.13;;
64950;SDS011;51482;47.014;7.652;2023-11-21T08:37:15;8.23;;;5.47;;
64950;SDS011;51482;47.014;7.652;2023-11-21T08:39:41;11.87;;;5.17;;
64950;SDS011;51482;47.014;7.652;2023-11-21T08:42:08;26.40;;;11.57;;
64950;SDS011;51482;47.014;7.652;2023-11-21T08:44:34;21.83;;;10.20;;
64950;SDS011;51482;47.014;7.652;2023-11-21T08:46:59;24.40;;;11.43;;
64950;SDS011;51482;47.014;7.652;2023-11-21T08:49:25;19.87;;;10.30;;
64950;SDS011;51482;47.014;7.652;2023-11-21T08:51:52;10.33;;;5.00;;
64950;SDS011;51482;47.014;7.652;2023-11-21T08:54:20;5.23;;;3.37;;
64950;SDS011;51482;47.014;7.652;2023-11-21T08:56:46;8.37;;;5.90;;
64950;SDS011;51482;47.014;7.652;2023-11-21T08:59:11;11.47;;;8.70;;
64950;SDS011;51482;47.014;7.652;2023-11-21T09:01:39;16.50;;;11.20;;
64950;SDS011;51482;47.014;7.652;2023-11-21T09:04:05;8.70;;;7.87;;
64950;SDS011;51482;47.014;7.652;2023-11-21T09:06:31;7.67;;;6.97;;
64950;SDS011;51482;47.014;7.652;2023-11-21T09:08:57;7.30;;;6.57;;
64950;SDS011;51482;47.014;7.652;2023-11-21T09:11:23;5.73;;;4.10;;
64950;SDS011;51482;47.014;7.652;2023-11-21T09:13:50;3.53;;;2.63;;
64950;SDS011;51482;47.014;7.652;2023-11-21T09:16:16;5.43;;;2.70;;
64950;SDS011;51482;47.014;7.652;2023-11-21T09:18:42;3.17;;;2.23;;
64950;SDS011;51482;47.014;7.652;2023-11-21T09:21:07;3.10;;;1.93;;
64950;SDS011;51482;47.014;7.652;2023-11-21T09:23:34;3.43;;;1.90;;
64950;SDS011;51482;47.014;7.652;2023-11-21T09:26:00;3.87;;;2.00;;
64950;SDS011;51482;47.014;7.652;2023-11-21T09:28:26;2.70;;;1.87;;
64950;SDS011;51482;47.014;7.652;2023-11-21T09:30:52;4.03;;;2.67;;
64950;SDS011;51482;47.014;7.652;2023-11-21T09:33:18;4.07;;;2.90;;
64950;SDS011;51482;47.014;7.652;2023-11-21T09:35:44;4.00;;;2.47;;
64950;SDS011;51482;47.014;7.652;2023-11-21T09:38:09;3.97;;;2.10;;
64950;SDS011;51482;47.014;7.652;2023-11-21T09:40:35;3.53;;;1.80;;
64950;SDS011;51482;47.014;7.652;2023-11-21T09:43:02;4.93;;;2.03;;
64950;SDS011;51482;47.014;7.652;2023-11-21T09:45:34;3.90;;;1.97;;
64950;SDS011;51482;47.014;7.652;2023-11-21T09:48:00;4.60;;;3.00;;
64950;SDS011;51482;47.014;7.652;2023-11-21T09:50:27;5.13;;;2.00;;
64950;SDS011;51482;47.014;7.652;2023-11-21T09:55:39;2.33;;;1.83;;
64950;SDS011;51482;47.014;7.652;2023-11-21T09:58:11;6.20;;;2.20;;
64950;SDS011;51482;47.014;7.652;2023-11-21T10:00:39;2.43;;;2.00;;
64950;SDS011;51482;47.014;7.652;2023-11-21T10:03:06;2.73;;;1.87;;
64950;SDS011;51482;47.014;7.652;2023-11-21T10:05:32;5.37;;;2.30;;
64950;SDS011;51482;47.014;7.652;2023-11-21T10:07:59;2.87;;;1.80;;
64950;SDS011;51482;47.014;7.652;2023-11-21T10:10:25;3.10;;;1.70;;
64950;SDS011;51482;47.014;7.652;2023-11-21T10:12:55;5.03;;;2.37;;
64950;SDS011;51482;47.014;7.652;2023-11-21T10:15:21;2.10;;;1.83;;
64950;SDS011;51482;47.014;7.652;2023-11-21T10:17:48;2.23;;;2.03;;
64950;SDS011;51482;47.014;7.652;2023-11-21T10:20:15;3.00;;;1.80;;
64950;SDS011;51482;47.014;7.652;2023-11-21T10:22:41;3.37;;;1.93;;
64950;SDS011;51482;47.014;7.652;2023-11-21T10:25:08;2.37;;;1.90;;
64950;SDS011;51482;47.014;7.652;2023-11-21T10:27:35;4.20;;;2.17;;
64950;SDS011;51482;47.014;7.652;2023-11-21T10:30:05;2.17;;;1.87;;
64950;SDS011;51482;47.014;7.652;2023-11-21T10:32:31;2.83;;;1.97;;
64950;SDS011;51482;47.014;7.652;2023-11-21T10:34:58;3.40;;;1.90;;
64950;SDS011;51482;47.014;7.652;2023-11-21T10:37:31;2.50;;;2.10;;
64950;SDS011;51482;47.014;7.652;2023-11-21T10:40:00;6.10;;;2.00;;
64950;SDS011;51482;47.014;7.652;2023-11-21T10:42:26;3.70;;;2.00;;
64950;SDS011;51482;47.014;7.652;2023-11-21T10:44:52;3.20;;;1.87;;
64950;SDS011;51482;47.014;7.652;2023-11-21T10:47:18;4.03;;;2.57;;
64950;SDS011;51482;47.014;7.652;2023-11-21T10:49:45;4.27;;;2.67;;
64950;SDS011;51482;47.014;7.652;2023-11-21T10:52:13;3.67;;;1.87;;
64950;SDS011;51482;47.014;7.652;2023-11-21T10:54:42;3.77;;;2.10;;
64950;SDS011;51482;47.014;7.652;2023-11-21T10:57:08;3.30;;;2.40;;
64950;SDS011;51482;47.014;7.652;2023-11-21T10:59:35;2.87;;;1.83;;
64950;SDS011;51482;47.014;7.652;2023-11-21T11:02:02;2.27;;;2.00;;
64950;SDS011;51482;47.014;7.652;2023-11-21T11:04:38;2.53;;;2.00;;
64950;SDS011;51482;47.014;7.652;2023-11-21T11:07:04;5.03;;;1.97;;
64950;SDS011;51482;47.014;7.652;2023-11-21T11:09:34;4.63;;;1.90;;
64950;SDS011;51482;47.014;7.652;2023-11-21T11:12:03;6.47;;;2.33;;
64950;SDS011;51482;47.014;7.652;2023-11-21T11:14:29;3.57;;;2.07;;
64950;SDS011;51482;47.014;7.652;2023-11-21T11:16:57;3.20;;;1.90;;
64950;SDS011;51482;47.014;7.652;2023-11-21T11:19:24;4.33;;;2.33;;
64950;SDS011;51482;47.014;7.652;2023-11-21T11:24:35;6.27;;;3.03;;
64950;SDS011;51482;47.014;7.652;2023-11-21T11:30:16;5.70;;;2.50;;
64950;SDS011;51482;47.014;7.652;2023-11-21T11:38:20;2.30;;;1.40;;
64950;SDS011;51482;47.014;7.652;2023-11-21T11:40:48;1.77;;;1.67;;
64950;SDS011;51482;47.014;7.652;2023-11-21T11:43:24;3.80;;;1.80;;
64950;SDS011;51482;47.014;7.652;2023-11-21T11:45:51;1.67;;;1.33;;
64950;SDS011;51482;47.014;7.652;2023-11-21T11:48:19;1.73;;;1.50;;
64950;SDS011;51482;47.014;7.652;2023-11-21T11:51:03;1.87;;;1.50;;
64950;SDS011;51482;47.014;7.652;2023-11-21T11:53:37;4.20;;;1.70;;
64950;SDS011;51482;47.014;7.652;2023-11-21T11:56:24;1.43;;;1.13;;
64950;SDS011;51482;47.014;7.652;2023-11-21T11:58:55;1.70;;;1.23;;
64950;SDS011;51482;47.014;7.652;2023-11-21T12:01:23;1.10;;;1.10;;
64950;SDS011;51482;47.014;7.652;2023-11-21T12:06:50;1.07;;;1.00;;
64950;SDS011;51482;47.014;7.652;2023-11-21T12:09:18;1.73;;;1.57;;
64950;SDS011;51482;47.014;7.652;2023-11-21T12:11:46;1.53;;;1.20;;
64950;SDS011;51482;47.014;7.652;2023-11-21T12:14:16;2.97;;;1.57;;
64950;SDS011;51482;47.014;7.652;2023-11-21T12:16:42;1.27;;;1.17;;
64950;SDS011;51482;47.014;7.652;2023-11-21T12:19:09;1.83;;;1.17;;
64950;SDS011;51482;47.014;7.652;2023-11-21T12:21:36;1.97;;;1.40;;
64950;SDS011;51482;47.014;7.652;2023-11-21T12:24:02;1.67;;;1.27;;
64950;SDS011;51482;47.014;7.652;2023-11-21T12:26:28;1.90;;;1.50;;
64950;SDS011;51482;47.014;7.652;2023-11-21T12:28:53;1.53;;;1.40;;
64950;SDS011;51482;47.014;7.652;2023-11-21T12:31:22;1.50;;;1.40;;
64950;SDS011;51482;47.014;7.652;2023-11-21T12:33:48;2.30;;;1.60;;
64950;SDS011;51482;47.014;7.652;2023-11-21T12:36:14;3.33;;;1.80;;
64950;SDS011;51482;47.014;7.652;2023-11-21T12:38:40;2.20;;;1.73;;
64950;SDS011;51482;47.014;7.652;2023-11-21T12:41:05;2.13;;;1.60;;
64950;SDS011;51482;47.014;7.652;2023-11-21T12:43:35;1.43;;;1.20;;
64950;SDS011;51482;47.014;7.652;2023-11-21T12:46:07;2.07;;;1.17;;
64950;SDS011;51482;47.014;7.652;2023-11-21T12:48:37;1.67;;;1.57;;
64950;SDS011;51482;47.014;7.652;2023-11-21T12:51:04;1.97;;;1.17;;
64950;SDS011;51482;47.014;7.652;2023-11-21T12:53:31;6.80;;;4.23;;
64950;SDS011;51482;47.014;7.652;2023-11-21T12:56:02;4.87;;;2.83;;
64950;SDS011;51482;47.014;7.652;2023-11-21T12:58:31;4.20;;;2.00;;
64950;SDS011;51482;47.014;7.652;2023-11-21T13:00:58;1.60;;;1.50;;
64950;SDS011;51482;47.014;7.652;2023-11-21T13:03:24;2.03;;;1.63;;
64950;SDS011;51482;47.014;7.652;2023-11-21T13:05:50;1.33;;;1.30;;
64950;SDS011;51482;47.014;7.652;2023-11-21T13:08:18;1.57;;;1.47;;
64950;SDS011;51482;47.014;7.652;2023-11-21T13:10:48;1.43;;;1.33;;
64950;SDS011;51482;47.014;7.652;2023-11-21T13:13:20;2.43;;;1.77;;
64950;SDS011;51482;47.014;7.652;2023-11-21T13:15:49;2.33;;;1.60;;
64950;SDS011;51482;47.014;7.652;2023-11-21T13:18:16;2.53;;;1.43;;
64950;SDS011;51482;47.014;7.652;2023-11-21T13:20:42;2.57;;;1.70;;
64950;SDS011;51482;47.014;7.652;2023-11-21T13:23:09;2.73;;;1.60;;
64950;SDS011;51482;47.014;7.652;2023-11-21T13:25:40;1.83;;;1.57;;
64950;SDS011;51482;47.014;7.652;2023-11-21T13:28:06;1.73;;;1.63;;
64950;SDS011;51482;47.014;7.652;2023-11-21T13:30:33;1.70;;;1.60;;
64950;SDS011;51482;47.014;7.652;2023-11-21T13:32:59;1.67;;;1.10;;
64950;SDS011;51482;47.014;7.652;2023-11-21T13:35:31;1.43;;;1.20;;
64950;SDS011;51482;47.014;7.652;2023-11-21T13:38:12;2.00;;;1.23;;
64950;SDS011;51482;47.014;7.652;2023-11-21T13:40:40;1.10;;;1.00;;
64950;SDS011;51482;47.014;7.652;2023-11-21T13:43:15;1.10;;;1.00;;
64950;SDS011;51482;47.014;7.652;2023-11-21T13:45:44;1.23;;;1.13;;
64950;SDS011;51482;47.014;7.652;2023-11-21T13:48:10;4.23;;;3.93;;
64950;SDS011;51482;47.014;7.652;2023-11-21T13:50:42;1.97;;;1.87;;
64950;SDS011;51482;47.014;7.652;2023-11-21T13:53:22;1.80;;;1.10;;
64950;SDS011;51482;47.014;7.652;2023-11-21T13:55:51;0.97;;;0.97;;
64950;SDS011;51482;47.014;7.652;2023-11-21T13:58:22;1.13;;;1.10;;
64950;SDS011;51482;47.014;7.652;2023-11-21T14:00:59;1.90;;;1.23;;
64950;SDS011;51482;47.014;7.652;2023-11-21T14:03:30;1.40;;;1.23;;
64950;SDS011;51482;47.014;7.652;2023-11-21T14:06:09;1.30;;;1.20;;
64950;SDS011;51482;47.014;7.652;2023-11-21T14:08:39;2.37;;;1.57;;
64950;SDS011;51482;47.014;7.652;2023-11-21T14:11:06;2.40;;;1.57;;
64950;SDS011;51482;47.014;7.652;2023-11-21T14:13:32;2.83;;;1.30;;
64950;SDS011;51482;47.014;7.652;2023-11-21T14:15:58;1.50;;;1.40;;
64950;SDS011;51482;47.014;7.652;2023-11-21T14:18:27;3.63;;;1.37;;
64950;SDS011;51482;47.014;7.652;2023-11-21T14:21:03;1.33;;;1.23;;
64950;SDS011;51482;47.014;7.652;2023-11-21T14:23:30;1.93;;;1.40;;
64950;SDS011;51482;47.014;7.652;2023-11-21T14:25:56;1.30;;;1.20;;
64950;SDS011;51482;47.014;7.652;2023-11-21T14:28:22;6.67;;;3.97;;
64950;SDS011;51482;47.014;7.652;2023-11-21T14:30:48;1.70;;;1.60;;
64950;SDS011;51482;47.014;7.652;2023-11-21T14:33:14;2.30;;;1.27;;
64950;SDS011;51482;47.014;7.652;2023-11-21T14:35:41;1.80;;;1.70;;
64950;SDS011;51482;47.014;7.652;2023-11-21T14:38:08;1.30;;;1.20;;
64950;SDS011;51482;47.014;7.652;2023-11-21T14:40:35;2.10;;;1.30;;
64950;SDS011;51482;47.014;7.652;2023-11-21T14:43:01;1.20;;;1.10;;
64950;SDS011;51482;47.014;7.652;2023-11-21T14:45:30;2.77;;;1.40;;
64950;SDS011;51482;47.014;7.652;2023-11-21T14:47:56;1.53;;;1.10;;
64950;SDS011;51482;47.014;7.652;2023-11-21T14:50:31;1.57;;;1.03;;
64950;SDS011;51482;47.014;7.652;2023-11-21T14:53:13;6.07;;;5.33;;
64950;SDS011;51482;47.014;7.652;2023-11-21T14:55:39;3.60;;;3.30;;
64950;SDS011;51482;47.014;7.652;2023-11-21T14:58:17;1.50;;;1.50;;
64950;SDS011;51482;47.014;7.652;2023-11-21T15:00:55;2.00;;;1.33;;
64950;SDS011;51482;47.014;7.652;2023-11-21T15:03:25;1.50;;;1.40;;
64950;SDS011;51482;47.014;7.652;2023-11-21T15:06:08;1.47;;;1.37;;